sensor_id;sensor_type;location;lat;lon;timestamp;temperature;humidity
7362;DHT22;3721;44.490;11.220;2022-08-01T00:00:09;27.10;46.30
7362;DHT22;3721;44.490;11.220;2022-08-01T00:02:38;27.00;46.30
7362;DHT22;3721;44.490;11.220;2022-08-01T00:05:05;27.00;46.40
7362;DHT22;3721;44.490;11.220;2022-08-01T00:07:34;27.00;46.50
7362;DHT22;3721;44.490;11.220;2022-08-01T00:10:02;27.00;46.60
7362;DHT22;3721;44.490;11.220;2022-08-01T00:12:28;27.00;46.70
7362;DHT22;3721;44.490;11.220;2022-08-01T00:14:53;27.00;46.80
7362;DHT22;3721;44.490;11.220;2022-08-01T00:17:19;26.90;46.80
7362;DHT22;3721;44.490;11.220;2022-08-01T00:19:45;26.90;46.90
7362;DHT22;3721;44.490;11.220;2022-08-01T00:22:11;27.00;46.90
7362;DHT22;3721;44.490;11.220;2022-08-01T00:24:36;26.90;46.90
7362;DHT22;3721;44.490;11.220;2022-08-01T00:27:02;26.90;46.90
7362;DHT22;3721;44.490;11.220;2022-08-01T00:29:28;26.80;47.00
7362;DHT22;3721;44.490;11.220;2022-08-01T00:31:53;26.70;47.10
7362;DHT22;3721;44.490;11.220;2022-08-01T00:34:19;26.70;47.20
7362;DHT22;3721;44.490;11.220;2022-08-01T00:36:45;26.60;47.30
7362;DHT22;3721;44.490;11.220;2022-08-01T00:39:12;26.60;47.50
7362;DHT22;3721;44.490;11.220;2022-08-01T00:41:38;26.60;47.50
7362;DHT22;3721;44.490;11.220;2022-08-01T00:44:04;26.70;47.60
7362;DHT22;3721;44.490;11.220;2022-08-01T00:46:32;26.70;47.50
7362;DHT22;3721;44.490;11.220;2022-08-01T00:48:58;26.70;47.50
7362;DHT22;3721;44.490;11.220;2022-08-01T00:51:25;26.70;47.50
7362;DHT22;3721;44.490;11.220;2022-08-01T00:53:52;26.70;47.50
7362;DHT22;3721;44.490;11.220;2022-08-01T00:56:20;26.70;47.50
7362;DHT22;3721;44.490;11.220;2022-08-01T00:58:46;26.70;47.50
7362;DHT22;3721;44.490;11.220;2022-08-01T01:01:12;26.70;47.60
7362;DHT22;3721;44.490;11.220;2022-08-01T01:03:38;26.70;47.60
7362;DHT22;3721;44.490;11.220;2022-08-01T01:06:12;26.70;47.60
7362;DHT22;3721;44.490;11.220;2022-08-01T01:08:46;26.60;47.60
7362;DHT22;3721;44.490;11.220;2022-08-01T01:11:20;26.60;47.70
7362;DHT22;3721;44.490;11.220;2022-08-01T01:13:52;26.60;47.80
7362;DHT22;3721;44.490;11.220;2022-08-01T01:16:20;26.60;47.80
7362;DHT22;3721;44.490;11.220;2022-08-01T01:18:51;26.60;47.90
7362;DHT22;3721;44.490;11.220;2022-08-01T01:24:28;26.50;48.10
7362;DHT22;3721;44.490;11.220;2022-08-01T01:27:29;26.50;48.20
7362;DHT22;3721;44.490;11.220;2022-08-01T01:29:55;26.40;48.10
7362;DHT22;3721;44.490;11.220;2022-08-01T01:32:33;26.40;48.30
7362;DHT22;3721;44.490;11.220;2022-08-01T01:35:07;26.20;48.40
7362;DHT22;3721;44.490;11.220;2022-08-01T01:37:35;26.20;48.50
7362;DHT22;3721;44.490;11.220;2022-08-01T01:40:05;26.20;48.70
7362;DHT22;3721;44.490;11.220;2022-08-01T01:42:32;26.20;48.70
7362;DHT22;3721;44.490;11.220;2022-08-01T01:44:58;26.10;48.70
7362;DHT22;3721;44.490;11.220;2022-08-01T01:47:26;26.20;48.90
7362;DHT22;3721;44.490;11.220;2022-08-01T01:49:54;26.10;48.80
7362;DHT22;3721;44.490;11.220;2022-08-01T01:52:21;26.20;48.90
7362;DHT22;3721;44.490;11.220;2022-08-01T01:54:50;26.20;48.90
7362;DHT22;3721;44.490;11.220;2022-08-01T01:57:18;26.20;49.00
7362;DHT22;3721;44.490;11.220;2022-08-01T01:59:45;26.10;49.00
7362;DHT22;3721;44.490;11.220;2022-08-01T02:02:12;26.10;49.10
7362;DHT22;3721;44.490;11.220;2022-08-01T02:04:43;26.10;49.20
7362;DHT22;3721;44.490;11.220;2022-08-01T02:07:12;26.10;49.20
7362;DHT22;3721;44.490;11.220;2022-08-01T02:09:40;26.10;49.30
7362;DHT22;3721;44.490;11.220;2022-08-01T02:12:10;26.10;49.30
7362;DHT22;3721;44.490;11.220;2022-08-01T02:14:37;26.10;49.40
7362;DHT22;3721;44.490;11.220;2022-08-01T02:17:05;26.10;49.40
7362;DHT22;3721;44.490;11.220;2022-08-01T02:19:33;26.00;49.50
7362;DHT22;3721;44.490;11.220;2022-08-01T02:22:00;26.00;49.60
7362;DHT22;3721;44.490;11.220;2022-08-01T02:27:24;25.90;49.90
7362;DHT22;3721;44.490;11.220;2022-08-01T02:29:57;26.00;50.00
7362;DHT22;3721;44.490;11.220;2022-08-01T02:32:27;25.90;50.00
7362;DHT22;3721;44.490;11.220;2022-08-01T02:34:57;25.90;50.10
7362;DHT22;3721;44.490;11.220;2022-08-01T02:37:24;25.80;50.20
7362;DHT22;3721;44.490;11.220;2022-08-01T02:39:54;25.80;50.30
7362;DHT22;3721;44.490;11.220;2022-08-01T02:42:23;25.80;50.40
7362;DHT22;3721;44.490;11.220;2022-08-01T02:44:50;25.80;50.60
7362;DHT22;3721;44.490;11.220;2022-08-01T02:47:19;25.80;50.70
7362;DHT22;3721;44.490;11.220;2022-08-01T02:49:47;25.70;50.70
7362;DHT22;3721;44.490;11.220;2022-08-01T02:52:16;25.70;50.80
7362;DHT22;3721;44.490;11.220;2022-08-01T02:54:48;25.70;50.70
7362;DHT22;3721;44.490;11.220;2022-08-01T02:57:16;25.70;50.80
7362;DHT22;3721;44.490;11.220;2022-08-01T02:59:43;25.70;50.80
7362;DHT22;3721;44.490;11.220;2022-08-01T03:02:10;25.60;50.80
7362;DHT22;3721;44.490;11.220;2022-08-01T03:04:38;25.60;50.80
7362;DHT22;3721;44.490;11.220;2022-08-01T03:07:07;25.50;50.90
7362;DHT22;3721;44.490;11.220;2022-08-01T03:09:37;25.50;51.00
7362;DHT22;3721;44.490;11.220;2022-08-01T03:12:11;25.40;51.00
7362;DHT22;3721;44.490;11.220;2022-08-01T03:14:40;25.40;51.10
7362;DHT22;3721;44.490;11.220;2022-08-01T03:17:07;25.40;51.10
7362;DHT22;3721;44.490;11.220;2022-08-01T03:19:34;25.40;51.20
7362;DHT22;3721;44.490;11.220;2022-08-01T03:22:02;25.40;51.30
7362;DHT22;3721;44.490;11.220;2022-08-01T03:24:29;25.30;51.40
7362;DHT22;3721;44.490;11.220;2022-08-01T03:26:57;25.30;51.50
7362;DHT22;3721;44.490;11.220;2022-08-01T03:29:25;25.20;51.60
7362;DHT22;3721;44.490;11.220;2022-08-01T03:31:53;25.10;51.70
7362;DHT22;3721;44.490;11.220;2022-08-01T03:34:19;25.10;51.90
7362;DHT22;3721;44.490;11.220;2022-08-01T03:37:02;25.10;52.10
7362;DHT22;3721;44.490;11.220;2022-08-01T03:39:32;25.00;52.10
7362;DHT22;3721;44.490;11.220;2022-08-01T03:42:03;25.00;52.20
7362;DHT22;3721;44.490;11.220;2022-08-01T03:44:33;24.90;52.20
7362;DHT22;3721;44.490;11.220;2022-08-01T03:47:05;24.90;52.40
7362;DHT22;3721;44.490;11.220;2022-08-01T03:49:34;24.90;52.60
7362;DHT22;3721;44.490;11.220;2022-08-01T03:52:06;24.80;52.70
7362;DHT22;3721;44.490;11.220;2022-08-01T03:54:37;24.80;52.80
7362;DHT22;3721;44.490;11.220;2022-08-01T03:57:04;24.70;52.80
7362;DHT22;3721;44.490;11.220;2022-08-01T03:59:31;24.60;52.90
7362;DHT22;3721;44.490;11.220;2022-08-01T04:01:59;24.60;53.00
7362;DHT22;3721;44.490;11.220;2022-08-01T04:04:26;24.60;53.20
7362;DHT22;3721;44.490;11.220;2022-08-01T04:06:53;24.60;53.20
7362;DHT22;3721;44.490;11.220;2022-08-01T04:09:20;24.60;53.30
7362;DHT22;3721;44.490;11.220;2022-08-01T04:11:47;24.60;53.40
7362;DHT22;3721;44.490;11.220;2022-08-01T04:14:13;24.60;53.30
7362;DHT22;3721;44.490;11.220;2022-08-01T04:16:39;24.60;53.30
7362;DHT22;3721;44.490;11.220;2022-08-01T04:19:04;24.60;53.30
7362;DHT22;3721;44.490;11.220;2022-08-01T04:21:34;24.70;53.30
7362;DHT22;3721;44.490;11.220;2022-08-01T04:24:03;24.60;53.20
7362;DHT22;3721;44.490;11.220;2022-08-01T04:26:32;24.70;53.30
7362;DHT22;3721;44.490;11.220;2022-08-01T04:29:02;24.70;53.20
7362;DHT22;3721;44.490;11.220;2022-08-01T04:31:30;24.80;53.30
7362;DHT22;3721;44.490;11.220;2022-08-01T04:33:57;24.80;53.20
7362;DHT22;3721;44.490;11.220;2022-08-01T04:36:25;24.80;53.20
7362;DHT22;3721;44.490;11.220;2022-08-01T04:38:55;24.80;53.20
7362;DHT22;3721;44.490;11.220;2022-08-01T04:41:23;24.90;53.20
7362;DHT22;3721;44.490;11.220;2022-08-01T04:43:49;24.90;53.10
7362;DHT22;3721;44.490;11.220;2022-08-01T04:46:17;24.90;53.00
7362;DHT22;3721;44.490;11.220;2022-08-01T04:48:44;24.90;53.00
7362;DHT22;3721;44.490;11.220;2022-08-01T04:51:17;25.00;53.10
7362;DHT22;3721;44.490;11.220;2022-08-01T04:53:47;25.00;53.10
7362;DHT22;3721;44.490;11.220;2022-08-01T04:56:13;25.00;53.10
7362;DHT22;3721;44.490;11.220;2022-08-01T04:58:42;25.10;53.10
7362;DHT22;3721;44.490;11.220;2022-08-01T05:01:09;25.10;53.10
7362;DHT22;3721;44.490;11.220;2022-08-01T05:03:35;25.10;53.00
7362;DHT22;3721;44.490;11.220;2022-08-01T05:06:01;25.20;53.30
7362;DHT22;3721;44.490;11.220;2022-08-01T05:08:26;25.20;53.50
7362;DHT22;3721;44.490;11.220;2022-08-01T05:10:52;25.20;53.70
7362;DHT22;3721;44.490;11.220;2022-08-01T05:13:19;25.20;53.80
7362;DHT22;3721;44.490;11.220;2022-08-01T05:15:45;25.20;53.90
7362;DHT22;3721;44.490;11.220;2022-08-01T05:18:11;25.20;54.00
7362;DHT22;3721;44.490;11.220;2022-08-01T05:20:37;25.20;54.20
7362;DHT22;3721;44.490;11.220;2022-08-01T05:23:06;25.20;54.40
7362;DHT22;3721;44.490;11.220;2022-08-01T05:25:32;25.20;54.70
7362;DHT22;3721;44.490;11.220;2022-08-01T05:27:58;25.20;54.90
7362;DHT22;3721;44.490;11.220;2022-08-01T05:30:24;25.20;55.10
7362;DHT22;3721;44.490;11.220;2022-08-01T05:32:50;25.20;55.20
7362;DHT22;3721;44.490;11.220;2022-08-01T05:35:16;25.10;55.30
7362;DHT22;3721;44.490;11.220;2022-08-01T05:37:41;25.10;55.30
7362;DHT22;3721;44.490;11.220;2022-08-01T05:40:08;25.20;55.40
7362;DHT22;3721;44.490;11.220;2022-08-01T05:42:33;25.30;55.80
7362;DHT22;3721;44.490;11.220;2022-08-01T05:44:59;25.60;56.00
7362;DHT22;3721;44.490;11.220;2022-08-01T05:47:25;25.90;55.70
7362;DHT22;3721;44.490;11.220;2022-08-01T05:49:51;26.20;55.20
7362;DHT22;3721;44.490;11.220;2022-08-01T05:52:16;26.60;54.70
7362;DHT22;3721;44.490;11.220;2022-08-01T05:54:42;26.80;54.30
7362;DHT22;3721;44.490;11.220;2022-08-01T05:57:08;27.00;53.80
7362;DHT22;3721;44.490;11.220;2022-08-01T05:59:33;27.30;53.70
7362;DHT22;3721;44.490;11.220;2022-08-01T06:01:59;27.50;53.40
7362;DHT22;3721;44.490;11.220;2022-08-01T06:04:25;27.60;53.00
7362;DHT22;3721;44.490;11.220;2022-08-01T06:06:51;27.70;52.50
7362;DHT22;3721;44.490;11.220;2022-08-01T06:09:17;27.70;52.40
7362;DHT22;3721;44.490;11.220;2022-08-01T06:11:43;27.80;52.50
7362;DHT22;3721;44.490;11.220;2022-08-01T06:14:08;27.80;52.40
7362;DHT22;3721;44.490;11.220;2022-08-01T06:16:34;27.90;52.40
7362;DHT22;3721;44.490;11.220;2022-08-01T06:19:00;28.00;52.10
7362;DHT22;3721;44.490;11.220;2022-08-01T06:21:26;28.10;51.70
7362;DHT22;3721;44.490;11.220;2022-08-01T06:23:51;28.10;52.30
7362;DHT22;3721;44.490;11.220;2022-08-01T06:26:18;28.20;51.80
7362;DHT22;3721;44.490;11.220;2022-08-01T06:28:44;28.20;52.00
7362;DHT22;3721;44.490;11.220;2022-08-01T06:31:09;28.20;51.80
7362;DHT22;3721;44.490;11.220;2022-08-01T06:33:37;28.20;51.60
7362;DHT22;3721;44.490;11.220;2022-08-01T06:36:03;28.30;51.80
7362;DHT22;3721;44.490;11.220;2022-08-01T06:38:29;28.30;51.80
7362;DHT22;3721;44.490;11.220;2022-08-01T06:40:55;28.50;52.00
7362;DHT22;3721;44.490;11.220;2022-08-01T06:43:21;28.70;52.10
7362;DHT22;3721;44.490;11.220;2022-08-01T06:45:47;28.90;52.30
7362;DHT22;3721;44.490;11.220;2022-08-01T06:48:12;29.20;52.30
7362;DHT22;3721;44.490;11.220;2022-08-01T06:50:38;29.50;52.10
7362;DHT22;3721;44.490;11.220;2022-08-01T06:53:04;29.80;51.90
7362;DHT22;3721;44.490;11.220;2022-08-01T06:55:30;30.00;51.80
7362;DHT22;3721;44.490;11.220;2022-08-01T06:57:56;30.40;51.60
7362;DHT22;3721;44.490;11.220;2022-08-01T07:00:23;30.60;51.20
7362;DHT22;3721;44.490;11.220;2022-08-01T07:02:51;30.90;50.70
7362;DHT22;3721;44.490;11.220;2022-08-01T07:05:17;31.20;50.40
7362;DHT22;3721;44.490;11.220;2022-08-01T07:07:43;31.50;50.10
7362;DHT22;3721;44.490;11.220;2022-08-01T07:10:09;31.70;49.50
7362;DHT22;3721;44.490;11.220;2022-08-01T07:12:36;31.90;49.10
7362;DHT22;3721;44.490;11.220;2022-08-01T07:15:07;32.10;48.90
7362;DHT22;3721;44.490;11.220;2022-08-01T07:17:37;32.10;48.40
7362;DHT22;3721;44.490;11.220;2022-08-01T07:20:03;32.20;48.60
7362;DHT22;3721;44.490;11.220;2022-08-01T07:22:29;32.30;48.20
7362;DHT22;3721;44.490;11.220;2022-08-01T07:24:55;32.30;47.80
7362;DHT22;3721;44.490;11.220;2022-08-01T07:27:20;32.30;47.90
7362;DHT22;3721;44.490;11.220;2022-08-01T07:29:46;32.40;47.60
7362;DHT22;3721;44.490;11.220;2022-08-01T07:32:12;32.40;47.10
7362;DHT22;3721;44.490;11.220;2022-08-01T07:34:38;32.40;47.20
7362;DHT22;3721;44.490;11.220;2022-08-01T07:37:03;32.50;47.60
7362;DHT22;3721;44.490;11.220;2022-08-01T07:39:29;32.60;47.60
7362;DHT22;3721;44.490;11.220;2022-08-01T07:41:55;32.70;47.70
7362;DHT22;3721;44.490;11.220;2022-08-01T07:44:21;32.80;47.40
7362;DHT22;3721;44.490;11.220;2022-08-01T07:46:47;32.90;47.40
7362;DHT22;3721;44.490;11.220;2022-08-01T07:49:13;33.00;47.40
7362;DHT22;3721;44.490;11.220;2022-08-01T07:51:38;33.10;47.20
7362;DHT22;3721;44.490;11.220;2022-08-01T07:54:04;33.10;47.30
7362;DHT22;3721;44.490;11.220;2022-08-01T07:56:30;33.30;47.40
7362;DHT22;3721;44.490;11.220;2022-08-01T07:58:56;33.50;47.40
7362;DHT22;3721;44.490;11.220;2022-08-01T08:01:22;33.60;47.10
7362;DHT22;3721;44.490;11.220;2022-08-01T08:03:47;33.70;47.10
7362;DHT22;3721;44.490;11.220;2022-08-01T08:06:13;33.90;47.20
7362;DHT22;3721;44.490;11.220;2022-08-01T08:08:39;34.00;46.80
7362;DHT22;3721;44.490;11.220;2022-08-01T08:11:04;34.10;46.20
7362;DHT22;3721;44.490;11.220;2022-08-01T08:13:30;34.10;45.90
7362;DHT22;3721;44.490;11.220;2022-08-01T08:15:56;34.20;45.80
7362;DHT22;3721;44.490;11.220;2022-08-01T08:18:23;34.30;45.70
7362;DHT22;3721;44.490;11.220;2022-08-01T08:20:49;34.30;45.20
7362;DHT22;3721;44.490;11.220;2022-08-01T08:23:15;34.30;45.20
7362;DHT22;3721;44.490;11.220;2022-08-01T08:25:59;34.30;45.40
7362;DHT22;3721;44.490;11.220;2022-08-01T08:28:25;34.30;45.50
7362;DHT22;3721;44.490;11.220;2022-08-01T08:30:51;34.40;45.80
7362;DHT22;3721;44.490;11.220;2022-08-01T08:33:18;34.40;46.30
7362;DHT22;3721;44.490;11.220;2022-08-01T08:35:44;34.50;46.20
7362;DHT22;3721;44.490;11.220;2022-08-01T08:38:10;34.40;45.80
7362;DHT22;3721;44.490;11.220;2022-08-01T08:40:36;34.50;45.90
7362;DHT22;3721;44.490;11.220;2022-08-01T08:43:04;34.50;45.80
7362;DHT22;3721;44.490;11.220;2022-08-01T08:45:31;34.40;45.50
7362;DHT22;3721;44.490;11.220;2022-08-01T08:47:57;34.40;45.70
7362;DHT22;3721;44.490;11.220;2022-08-01T08:50:25;34.40;45.90
7362;DHT22;3721;44.490;11.220;2022-08-01T08:52:54;34.40;45.90
7362;DHT22;3721;44.490;11.220;2022-08-01T08:55:20;34.40;45.90
7362;DHT22;3721;44.490;11.220;2022-08-01T08:57:47;34.40;46.20
7362;DHT22;3721;44.490;11.220;2022-08-01T09:00:14;34.30;46.20
7362;DHT22;3721;44.490;11.220;2022-08-01T09:02:44;34.30;46.20
7362;DHT22;3721;44.490;11.220;2022-08-01T09:05:11;34.30;46.30
7362;DHT22;3721;44.490;11.220;2022-08-01T09:07:37;34.30;47.30
7362;DHT22;3721;44.490;11.220;2022-08-01T09:10:04;34.30;46.40
7362;DHT22;3721;44.490;11.220;2022-08-01T09:12:30;34.30;46.30
7362;DHT22;3721;44.490;11.220;2022-08-01T09:14:56;34.30;45.60
7362;DHT22;3721;44.490;11.220;2022-08-01T09:17:21;34.30;45.70
7362;DHT22;3721;44.490;11.220;2022-08-01T09:19:50;34.30;45.60
7362;DHT22;3721;44.490;11.220;2022-08-01T09:22:23;34.30;45.50
7362;DHT22;3721;44.490;11.220;2022-08-01T09:27:26;34.30;45.30
7362;DHT22;3721;44.490;11.220;2022-08-01T09:29:53;34.40;45.60
7362;DHT22;3721;44.490;11.220;2022-08-01T09:32:20;34.40;45.80
7362;DHT22;3721;44.490;11.220;2022-08-01T09:34:45;34.40;45.50
7362;DHT22;3721;44.490;11.220;2022-08-01T09:37:12;34.40;45.70
7362;DHT22;3721;44.490;11.220;2022-08-01T09:39:42;34.40;45.60
7362;DHT22;3721;44.490;11.220;2022-08-01T09:42:25;34.40;46.10
7362;DHT22;3721;44.490;11.220;2022-08-01T09:44:51;34.60;46.80
7362;DHT22;3721;44.490;11.220;2022-08-01T09:47:19;34.60;46.00
7362;DHT22;3721;44.490;11.220;2022-08-01T09:49:56;34.60;45.60
7362;DHT22;3721;44.490;11.220;2022-08-01T09:52:26;34.60;45.20
7362;DHT22;3721;44.490;11.220;2022-08-01T09:55:02;34.60;44.70
7362;DHT22;3721;44.490;11.220;2022-08-01T09:57:29;34.50;45.00
7362;DHT22;3721;44.490;11.220;2022-08-01T09:59:56;34.60;45.40
7362;DHT22;3721;44.490;11.220;2022-08-01T10:02:37;34.60;45.30
7362;DHT22;3721;44.490;11.220;2022-08-01T10:05:06;34.70;45.10
7362;DHT22;3721;44.490;11.220;2022-08-01T10:07:32;34.70;45.30
7362;DHT22;3721;44.490;11.220;2022-08-01T10:10:13;34.70;45.30
7362;DHT22;3721;44.490;11.220;2022-08-01T10:12:40;34.70;45.20
7362;DHT22;3721;44.490;11.220;2022-08-01T10:15:07;34.70;45.30
7362;DHT22;3721;44.490;11.220;2022-08-01T10:17:34;34.80;45.20
7362;DHT22;3721;44.490;11.220;2022-08-01T10:20:02;34.80;45.00
7362;DHT22;3721;44.490;11.220;2022-08-01T10:22:30;34.80;44.80
7362;DHT22;3721;44.490;11.220;2022-08-01T10:24:56;34.80;45.50
7362;DHT22;3721;44.490;11.220;2022-08-01T10:27:25;34.80;46.50
7362;DHT22;3721;44.490;11.220;2022-08-01T10:30:03;34.80;45.00
7362;DHT22;3721;44.490;11.220;2022-08-01T10:32:31;34.80;44.60
7362;DHT22;3721;44.490;11.220;2022-08-01T10:34:57;34.90;44.80
7362;DHT22;3721;44.490;11.220;2022-08-01T10:37:24;34.90;44.90
7362;DHT22;3721;44.490;11.220;2022-08-01T10:39:51;34.90;44.70
7362;DHT22;3721;44.490;11.220;2022-08-01T10:42:17;34.90;45.10
7362;DHT22;3721;44.490;11.220;2022-08-01T10:44:44;35.00;45.00
7362;DHT22;3721;44.490;11.220;2022-08-01T10:47:15;35.00;44.50
7362;DHT22;3721;44.490;11.220;2022-08-01T10:49:50;35.00;44.20
7362;DHT22;3721;44.490;11.220;2022-08-01T10:52:20;34.90;44.10
7362;DHT22;3721;44.490;11.220;2022-08-01T10:54:46;34.90;44.20
7362;DHT22;3721;44.490;11.220;2022-08-01T10:57:13;35.00;44.30
7362;DHT22;3721;44.490;11.220;2022-08-01T10:59:50;35.00;44.00
7362;DHT22;3721;44.490;11.220;2022-08-01T11:02:30;35.00;44.10
7362;DHT22;3721;44.490;11.220;2022-08-01T11:04:58;35.00;44.30
7362;DHT22;3721;44.490;11.220;2022-08-01T11:07:52;35.10;44.70
7362;DHT22;3721;44.490;11.220;2022-08-01T11:10:28;35.20;43.40
7362;DHT22;3721;44.490;11.220;2022-08-01T11:12:55;35.30;43.60
7362;DHT22;3721;44.490;11.220;2022-08-01T11:15:22;35.20;43.60
7362;DHT22;3721;44.490;11.220;2022-08-01T11:17:53;35.20;43.30
7362;DHT22;3721;44.490;11.220;2022-08-01T11:30:46;35.40;43.00
7362;DHT22;3721;44.490;11.220;2022-08-01T11:33:13;35.30;42.80
7362;DHT22;3721;44.490;11.220;2022-08-01T11:39:18;35.30;43.10
7362;DHT22;3721;44.490;11.220;2022-08-01T11:41:29;35.30;42.90
7362;DHT22;3721;44.490;11.220;2022-08-01T11:43:59;35.30;43.00
7362;DHT22;3721;44.490;11.220;2022-08-01T11:57:17;35.30;41.90
7362;DHT22;3721;44.490;11.220;2022-08-01T11:59:49;35.40;41.80
7362;DHT22;3721;44.490;11.220;2022-08-01T12:02:20;35.60;41.30
7362;DHT22;3721;44.490;11.220;2022-08-01T12:04:53;35.60;41.40
7362;DHT22;3721;44.490;11.220;2022-08-01T12:07:20;35.50;41.30
7362;DHT22;3721;44.490;11.220;2022-08-01T12:09:47;35.50;41.30
7362;DHT22;3721;44.490;11.220;2022-08-01T12:12:17;35.40;40.80
7362;DHT22;3721;44.490;11.220;2022-08-01T12:14:44;35.40;41.30
7362;DHT22;3721;44.490;11.220;2022-08-01T12:17:10;35.40;42.00
7362;DHT22;3721;44.490;11.220;2022-08-01T12:19:36;35.40;41.60
7362;DHT22;3721;44.490;11.220;2022-08-01T12:22:10;35.40;42.20
7362;DHT22;3721;44.490;11.220;2022-08-01T12:24:37;35.40;41.40
7362;DHT22;3721;44.490;11.220;2022-08-01T12:27:05;35.40;42.60
7362;DHT22;3721;44.490;11.220;2022-08-01T12:29:38;35.40;42.30
7362;DHT22;3721;44.490;11.220;2022-08-01T12:32:21;35.40;41.40
7362;DHT22;3721;44.490;11.220;2022-08-01T12:34:48;35.40;41.20
7362;DHT22;3721;44.490;11.220;2022-08-01T12:37:14;35.30;41.60
7362;DHT22;3721;44.490;11.220;2022-08-01T12:39:40;35.30;42.10
7362;DHT22;3721;44.490;11.220;2022-08-01T12:42:09;35.40;42.20
7362;DHT22;3721;44.490;11.220;2022-08-01T12:44:37;35.30;42.10
7362;DHT22;3721;44.490;11.220;2022-08-01T12:47:05;35.40;42.10
7362;DHT22;3721;44.490;11.220;2022-08-01T12:49:33;35.40;41.40
7362;DHT22;3721;44.490;11.220;2022-08-01T12:52:01;35.40;41.00
7362;DHT22;3721;44.490;11.220;2022-08-01T12:54:27;35.40;41.30
7362;DHT22;3721;44.490;11.220;2022-08-01T12:56:53;35.40;41.40
7362;DHT22;3721;44.490;11.220;2022-08-01T12:59:26;35.40;40.90
7362;DHT22;3721;44.490;11.220;2022-08-01T13:01:55;35.40;40.50
7362;DHT22;3721;44.490;11.220;2022-08-01T13:04:22;35.40;40.10
7362;DHT22;3721;44.490;11.220;2022-08-01T13:06:52;35.40;40.20
7362;DHT22;3721;44.490;11.220;2022-08-01T13:09:19;35.40;40.40
7362;DHT22;3721;44.490;11.220;2022-08-01T13:11:44;35.40;40.90
7362;DHT22;3721;44.490;11.220;2022-08-01T13:14:27;35.40;41.30
7362;DHT22;3721;44.490;11.220;2022-08-01T13:16:52;35.40;41.30
7362;DHT22;3721;44.490;11.220;2022-08-01T13:19:18;35.40;41.50
7362;DHT22;3721;44.490;11.220;2022-08-01T13:21:55;35.40;42.10
7362;DHT22;3721;44.490;11.220;2022-08-01T13:24:29;35.40;42.80
7362;DHT22;3721;44.490;11.220;2022-08-01T13:29:33;35.40;41.20
7362;DHT22;3721;44.490;11.220;2022-08-01T13:32:01;35.40;41.10
7362;DHT22;3721;44.490;11.220;2022-08-01T13:34:37;35.50;41.10
7362;DHT22;3721;44.490;11.220;2022-08-01T13:37:03;35.60;41.70
7362;DHT22;3721;44.490;11.220;2022-08-01T13:39:29;35.50;41.10
7362;DHT22;3721;44.490;11.220;2022-08-01T13:42:08;35.50;40.70
7362;DHT22;3721;44.490;11.220;2022-08-01T13:44:34;35.50;40.60
7362;DHT22;3721;44.490;11.220;2022-08-01T13:47:02;35.40;40.20
7362;DHT22;3721;44.490;11.220;2022-08-01T13:49:28;35.40;40.00
7362;DHT22;3721;44.490;11.220;2022-08-01T13:51:54;35.40;40.70
7362;DHT22;3721;44.490;11.220;2022-08-01T13:54:19;35.40;40.60
7362;DHT22;3721;44.490;11.220;2022-08-01T13:56:45;35.40;41.10
7362;DHT22;3721;44.490;11.220;2022-08-01T13:59:11;35.40;40.90
7362;DHT22;3721;44.490;11.220;2022-08-01T14:01:38;35.40;40.40
7362;DHT22;3721;44.490;11.220;2022-08-01T14:04:04;35.40;40.20
7362;DHT22;3721;44.490;11.220;2022-08-01T14:06:31;35.40;39.80
7362;DHT22;3721;44.490;11.220;2022-08-01T14:08:57;35.50;40.40
7362;DHT22;3721;44.490;11.220;2022-08-01T14:11:23;35.50;40.70
7362;DHT22;3721;44.490;11.220;2022-08-01T14:13:49;35.60;40.70
7362;DHT22;3721;44.490;11.220;2022-08-01T14:16:16;35.60;40.50
7362;DHT22;3721;44.490;11.220;2022-08-01T14:18:41;35.60;40.30
7362;DHT22;3721;44.490;11.220;2022-08-01T14:21:07;35.60;39.90
7362;DHT22;3721;44.490;11.220;2022-08-01T14:23:33;35.60;40.30
7362;DHT22;3721;44.490;11.220;2022-08-01T14:25:59;35.60;40.50
7362;DHT22;3721;44.490;11.220;2022-08-01T14:28:24;35.60;41.00
7362;DHT22;3721;44.490;11.220;2022-08-01T14:30:52;35.60;41.00
7362;DHT22;3721;44.490;11.220;2022-08-01T14:33:21;35.60;40.90
7362;DHT22;3721;44.490;11.220;2022-08-01T14:35:47;35.60;41.10
7362;DHT22;3721;44.490;11.220;2022-08-01T14:38:13;35.60;41.30
7362;DHT22;3721;44.490;11.220;2022-08-01T14:40:39;35.50;40.80
7362;DHT22;3721;44.490;11.220;2022-08-01T14:43:06;35.50;40.00
7362;DHT22;3721;44.490;11.220;2022-08-01T14:45:32;35.50;39.20
7362;DHT22;3721;44.490;11.220;2022-08-01T14:47:58;35.40;40.00
7362;DHT22;3721;44.490;11.220;2022-08-01T14:50:25;35.40;39.40
7362;DHT22;3721;44.490;11.220;2022-08-01T14:52:53;35.40;39.50
7362;DHT22;3721;44.490;11.220;2022-08-01T14:55:19;35.40;39.40
7362;DHT22;3721;44.490;11.220;2022-08-01T14:57:49;35.40;39.20
7362;DHT22;3721;44.490;11.220;2022-08-01T15:00:15;35.40;39.20
7362;DHT22;3721;44.490;11.220;2022-08-01T15:02:42;35.40;38.90
7362;DHT22;3721;44.490;11.220;2022-08-01T15:05:08;35.40;38.80
7362;DHT22;3721;44.490;11.220;2022-08-01T15:07:37;35.40;38.50
7362;DHT22;3721;44.490;11.220;2022-08-01T15:10:04;35.50;38.60
7362;DHT22;3721;44.490;11.220;2022-08-01T15:12:31;35.50;39.60
7362;DHT22;3721;44.490;11.220;2022-08-01T15:14:57;35.50;40.80
7362;DHT22;3721;44.490;11.220;2022-08-01T15:17:30;35.50;40.20
7362;DHT22;3721;44.490;11.220;2022-08-01T15:19:59;35.50;39.20
7362;DHT22;3721;44.490;11.220;2022-08-01T15:22:26;35.50;38.90
7362;DHT22;3721;44.490;11.220;2022-08-01T15:24:53;35.50;38.90
7362;DHT22;3721;44.490;11.220;2022-08-01T15:27:19;35.50;38.40
7362;DHT22;3721;44.490;11.220;2022-08-01T15:29:47;35.50;38.40
7362;DHT22;3721;44.490;11.220;2022-08-01T15:32:12;35.50;38.60
7362;DHT22;3721;44.490;11.220;2022-08-01T15:34:40;35.50;37.60
7362;DHT22;3721;44.490;11.220;2022-08-01T15:37:06;35.50;38.00
7362;DHT22;3721;44.490;11.220;2022-08-01T15:39:33;35.50;38.20
7362;DHT22;3721;44.490;11.220;2022-08-01T15:42:02;35.50;38.40
7362;DHT22;3721;44.490;11.220;2022-08-01T15:44:28;35.50;38.70
7362;DHT22;3721;44.490;11.220;2022-08-01T15:46:54;35.40;38.00
7362;DHT22;3721;44.490;11.220;2022-08-01T15:49:19;35.50;39.00
7362;DHT22;3721;44.490;11.220;2022-08-01T15:51:48;35.50;39.50
7362;DHT22;3721;44.490;11.220;2022-08-01T15:54:14;35.40;39.10
7362;DHT22;3721;44.490;11.220;2022-08-01T15:56:39;35.40;39.60
7362;DHT22;3721;44.490;11.220;2022-08-01T15:59:05;35.50;39.20
7362;DHT22;3721;44.490;11.220;2022-08-01T16:01:31;35.50;39.30
7362;DHT22;3721;44.490;11.220;2022-08-01T16:03:57;35.40;39.30
7362;DHT22;3721;44.490;11.220;2022-08-01T16:06:24;35.50;38.80
7362;DHT22;3721;44.490;11.220;2022-08-01T16:08:51;35.40;38.70
7362;DHT22;3721;44.490;11.220;2022-08-01T16:11:17;35.50;39.00
7362;DHT22;3721;44.490;11.220;2022-08-01T16:13:43;35.50;38.60
7362;DHT22;3721;44.490;11.220;2022-08-01T16:16:10;35.60;38.70
7362;DHT22;3721;44.490;11.220;2022-08-01T16:18:37;35.50;38.90
7362;DHT22;3721;44.490;11.220;2022-08-01T16:21:03;35.50;39.20
7362;DHT22;3721;44.490;11.220;2022-08-01T16:23:30;35.50;39.70